sensor_id;sensor_type;location;lat;lon;timestamp;P1;durP1;ratioP1;P2;durP2;ratioP2
16147;SDS011;8179;59.364;18.018;2023-07-13T00:02:14;743.13;;;697.53;;
16147;SDS011;8179;59.364;18.018;2023-07-13T00:04:42;743.65;;;694.38;;
16147;SDS011;8179;59.364;18.018;2023-07-13T00:07:09;773.20;;;723.15;;
16147;SDS011;8179;59.364;18.018;2023-07-13T00:09:35;790.95;;;739.90;;
16147;SDS011;8179;59.364;18.018;2023-07-13T00:12:02;835.30;;;783.30;;
16147;SDS011;8179;59.364;18.018;2023-07-13T00:14:29;825.45;;;771.63;;
16147;SDS011;8179;59.364;18.018;2023-07-13T00:16:56;839.40;;;784.50;;
16147;SDS011;8179;59.364;18.018;2023-07-13T00:19:25;808.45;;;756.05;;
16147;SDS011;8179;59.364;18.018;2023-07-13T00:21:53;872.50;;;817.85;;
16147;SDS011;8179;59.364;18.018;2023-07-13T00:24:21;795.42;;;743.35;;
16147;SDS011;8179;59.364;18.018;2023-07-13T00:26:49;747.30;;;699.38;;
16147;SDS011;8179;59.364;18.018;2023-07-13T00:29:15;667.28;;;625.25;;
16147;SDS011;8179;59.364;18.018;2023-07-13T00:31:42;827.08;;;772.05;;
16147;SDS011;8179;59.364;18.018;2023-07-13T00:34:09;802.50;;;749.58;;
16147;SDS011;8179;59.364;18.018;2023-07-13T00:36:36;807.10;;;754.78;;
16147;SDS011;8179;59.364;18.018;2023-07-13T00:39:05;816.90;;;763.58;;
16147;SDS011;8179;59.364;18.018;2023-07-13T00:41:31;768.50;;;716.20;;
16147;SDS011;8179;59.364;18.018;2023-07-13T00:43:58;770.58;;;719.25;;
16147;SDS011;8179;59.364;18.018;2023-07-13T00:46:26;780.03;;;727.05;;
16147;SDS011;8179;59.364;18.018;2023-07-13T00:48:53;783.83;;;731.75;;
16147;SDS011;8179;59.364;18.018;2023-07-13T00:51:21;778.80;;;725.75;;
16147;SDS011;8179;59.364;18.018;2023-07-13T00:53:50;739.80;;;690.92;;
16147;SDS011;8179;59.364;18.018;2023-07-13T00:56:18;776.97;;;725.20;;
16147;SDS011;8179;59.364;18.018;2023-07-13T00:58:45;785.15;;;732.40;;
16147;SDS011;8179;59.364;18.018;2023-07-13T01:01:12;740.45;;;691.20;;
16147;SDS011;8179;59.364;18.018;2023-07-13T01:03:39;751.38;;;704.28;;
16147;SDS011;8179;59.364;18.018;2023-07-13T01:06:06;701.95;;;656.92;;
16147;SDS011;8179;59.364;18.018;2023-07-13T01:08:33;753.55;;;705.65;;
16147;SDS011;8179;59.364;18.018;2023-07-13T01:11:00;760.08;;;711.50;;
16147;SDS011;8179;59.364;18.018;2023-07-13T01:13:28;683.65;;;640.65;;
16147;SDS011;8179;59.364;18.018;2023-07-13T01:15:55;727.47;;;681.00;;
16147;SDS011;8179;59.364;18.018;2023-07-13T01:18:25;1689.60;;;927.03;;
16147;SDS011;8179;59.364;18.018;2023-07-13T01:20:54;654.33;;;611.08;;
16147;SDS011;8179;59.364;18.018;2023-07-13T01:23:21;1999.90;;;999.90;;
16147;SDS011;8179;59.364;18.018;2023-07-13T01:25:49;1999.90;;;999.90;;
16147;SDS011;8179;59.364;18.018;2023-07-13T01:28:15;1999.90;;;999.90;;
16147;SDS011;8179;59.364;18.018;2023-07-13T01:30:43;1634.85;;;876.00;;
16147;SDS011;8179;59.364;18.018;2023-07-13T01:33:11;1632.38;;;872.38;;
16147;SDS011;8179;59.364;18.018;2023-07-13T01:35:37;1635.82;;;876.00;;
16147;SDS011;8179;59.364;18.018;2023-07-13T01:38:05;1999.90;;;999.90;;
16147;SDS011;8179;59.364;18.018;2023-07-13T01:40:33;1999.90;;;999.90;;
16147;SDS011;8179;59.364;18.018;2023-07-13T01:43:00;1999.90;;;999.90;;
16147;SDS011;8179;59.364;18.018;2023-07-13T01:45:27;1626.38;;;867.75;;
16147;SDS011;8179;59.364;18.018;2023-07-13T01:47:53;1999.90;;;999.90;;
16147;SDS011;8179;59.364;18.018;2023-07-13T01:50:20;1999.90;;;999.90;;
16147;SDS011;8179;59.364;18.018;2023-07-13T01:52:46;1999.90;;;999.90;;
16147;SDS011;8179;59.364;18.018;2023-07-13T01:55:14;1999.90;;;999.90;;
16147;SDS011;8179;59.364;18.018;2023-07-13T01:57:41;1999.90;;;999.90;;
16147;SDS011;8179;59.364;18.018;2023-07-13T02:00:09;1999.90;;;999.90;;
16147;SDS011;8179;59.364;18.018;2023-07-13T02:02:36;1999.90;;;999.90;;
16147;SDS011;8179;59.364;18.018;2023-07-13T02:05:02;1999.90;;;999.90;;
16147;SDS011;8179;59.364;18.018;2023-07-13T02:07:29;1999.90;;;999.90;;
16147;SDS011;8179;59.364;18.018;2023-07-13T02:09:55;1999.90;;;999.90;;
16147;SDS011;8179;59.364;18.018;2023-07-13T02:12:23;1999.90;;;999.90;;
16147;SDS011;8179;59.364;18.018;2023-07-13T02:14:50;1999.90;;;999.90;;
16147;SDS011;8179;59.364;18.018;2023-07-13T02:17:17;1999.90;;;999.90;;
16147;SDS011;8179;59.364;18.018;2023-07-13T02:19:43;1999.90;;;999.90;;
16147;SDS011;8179;59.364;18.018;2023-07-13T02:22:10;1999.90;;;999.90;;
16147;SDS011;8179;59.364;18.018;2023-07-13T02:24:36;1999.90;;;999.90;;
16147;SDS011;8179;59.364;18.018;2023-07-13T02:27:04;1999.90;;;999.90;;
16147;SDS011;8179;59.364;18.018;2023-07-13T02:29:32;1999.90;;;999.90;;
16147;SDS011;8179;59.364;18.018;2023-07-13T02:31:58;1999.90;;;999.90;;
16147;SDS011;8179;59.364;18.018;2023-07-13T02:34:25;1999.90;;;999.90;;
16147;SDS011;8179;59.364;18.018;2023-07-13T02:36:52;1999.90;;;999.90;;
16147;SDS011;8179;59.364;18.018;2023-07-13T02:39:18;1999.90;;;999.90;;
16147;SDS011;8179;59.364;18.018;2023-07-13T02:41:45;1999.90;;;999.90;;
16147;SDS011;8179;59.364;18.018;2023-07-13T02:44:12;1999.90;;;999.90;;
16147;SDS011;8179;59.364;18.018;2023-07-13T02:46:40;1999.90;;;999.90;;
16147;SDS011;8179;59.364;18.018;2023-07-13T02:49:06;1999.90;;;999.90;;
16147;SDS011;8179;59.364;18.018;2023-07-13T02:51:33;1999.90;;;999.90;;
16147;SDS011;8179;59.364;18.018;2023-07-13T02:54:00;1999.90;;;999.90;;
16147;SDS011;8179;59.364;18.018;2023-07-13T02:56:27;1999.90;;;999.90;;
16147;SDS011;8179;59.364;18.018;2023-07-13T02:58:54;1999.90;;;999.90;;
16147;SDS011;8179;59.364;18.018;2023-07-13T03:01:21;1999.90;;;999.90;;
16147;SDS011;8179;59.364;18.018;2023-07-13T03:03:49;1999.90;;;999.90;;
16147;SDS011;8179;59.364;18.018;2023-07-13T03:06:16;1999.90;;;999.90;;
16147;SDS011;8179;59.364;18.018;2023-07-13T03:08:43;1999.90;;;999.90;;
16147;SDS011;8179;59.364;18.018;2023-07-13T03:11:11;1999.90;;;999.90;;
16147;SDS011;8179;59.364;18.018;2023-07-13T03:13:38;1999.90;;;999.90;;
16147;SDS011;8179;59.364;18.018;2023-07-13T03:16:05;1999.90;;;999.90;;
16147;SDS011;8179;59.364;18.018;2023-07-13T03:18:32;1999.90;;;999.90;;
16147;SDS011;8179;59.364;18.018;2023-07-13T03:21:00;1999.90;;;999.90;;
16147;SDS011;8179;59.364;18.018;2023-07-13T03:23:26;1999.90;;;999.90;;
16147;SDS011;8179;59.364;18.018;2023-07-13T03:26:00;1999.90;;;999.90;;
16147;SDS011;8179;59.364;18.018;2023-07-13T03:28:27;1999.90;;;999.90;;
16147;SDS011;8179;59.364;18.018;2023-07-13T03:30:58;1999.90;;;999.90;;
16147;SDS011;8179;59.364;18.018;2023-07-13T03:33:25;1999.90;;;999.90;;
16147;SDS011;8179;59.364;18.018;2023-07-13T03:35:52;1999.90;;;999.90;;
16147;SDS011;8179;59.364;18.018;2023-07-13T03:38:20;1999.90;;;999.90;;
16147;SDS011;8179;59.364;18.018;2023-07-13T03:40:46;1999.90;;;999.90;;
16147;SDS011;8179;59.364;18.018;2023-07-13T03:43:14;1999.90;;;999.90;;
16147;SDS011;8179;59.364;18.018;2023-07-13T03:45:40;1999.90;;;999.90;;
16147;SDS011;8179;59.364;18.018;2023-07-13T03:48:07;1999.90;;;999.90;;
16147;SDS011;8179;59.364;18.018;2023-07-13T03:50:33;1999.90;;;999.90;;
16147;SDS011;8179;59.364;18.018;2023-07-13T03:53:00;1999.90;;;999.90;;
16147;SDS011;8179;59.364;18.018;2023-07-13T03:55:28;1999.90;;;999.90;;
16147;SDS011;8179;59.364;18.018;2023-07-13T03:57:57;1999.90;;;999.90;;
16147;SDS011;8179;59.364;18.018;2023-07-13T04:00:24;1999.90;;;999.90;;
16147;SDS011;8179;59.364;18.018;2023-07-13T04:02:51;1999.90;;;999.90;;
16147;SDS011;8179;59.364;18.018;2023-07-13T04:05:18;1999.90;;;999.90;;
16147;SDS011;8179;59.364;18.018;2023-07-13T04:07:45;1999.90;;;999.90;;
16147;SDS011;8179;59.364;18.018;2023-07-13T04:10:11;1999.90;;;999.90;;
16147;SDS011;8179;59.364;18.018;2023-07-13T04:12:39;1999.90;;;999.90;;
16147;SDS011;8179;59.364;18.018;2023-07-13T04:15:07;1999.90;;;999.90;;
16147;SDS011;8179;59.364;18.018;2023-07-13T04:17:33;1999.90;;;999.90;;
16147;SDS011;8179;59.364;18.018;2023-07-13T04:20:00;1999.90;;;999.90;;
16147;SDS011;8179;59.364;18.018;2023-07-13T04:22:27;564.30;;;529.10;;
16147;SDS011;8179;59.364;18.018;2023-07-13T04:24:53;1046.65;;;981.90;;
16147;SDS011;8179;59.364;18.018;2023-07-13T04:27:20;1000.45;;;939.95;;
16147;SDS011;8179;59.364;18.018;2023-07-13T04:29:48;1009.03;;;946.60;;
16147;SDS011;8179;59.364;18.018;2023-07-13T04:32:14;1024.00;;;960.65;;
16147;SDS011;8179;59.364;18.018;2023-07-13T04:34:41;1062.20;;;995.15;;
16147;SDS011;8179;59.364;18.018;2023-07-13T04:37:07;707.13;;;673.40;;
16147;SDS011;8179;59.364;18.018;2023-07-13T04:39:34;1054.60;;;988.47;;
16147;SDS011;8179;59.364;18.018;2023-07-13T04:42:01;1059.03;;;989.45;;
16147;SDS011;8179;59.364;18.018;2023-07-13T04:44:27;1165.05;;;999.90;;
16147;SDS011;8179;59.364;18.018;2023-07-13T04:46:55;1140.03;;;999.90;;
16147;SDS011;8179;59.364;18.018;2023-07-13T04:49:22;1083.93;;;999.72;;
16147;SDS011;8179;59.364;18.018;2023-07-13T04:51:48;1081.30;;;998.25;;
16147;SDS011;8179;59.364;18.018;2023-07-13T04:54:15;1117.30;;;999.90;;
16147;SDS011;8179;59.364;18.018;2023-07-13T04:56:42;1046.13;;;979.78;;
16147;SDS011;8179;59.364;18.018;2023-07-13T04:59:08;999.55;;;936.20;;
16147;SDS011;8179;59.364;18.018;2023-07-13T05:01:35;1004.85;;;943.53;;
16147;SDS011;8179;59.364;18.018;2023-07-13T05:04:03;1483.53;;;954.47;;
16147;SDS011;8179;59.364;18.018;2023-07-13T05:06:29;954.60;;;897.83;;
16147;SDS011;8179;59.364;18.018;2023-07-13T05:08:56;1999.90;;;999.90;;
16147;SDS011;8179;59.364;18.018;2023-07-13T05:11:23;638.72;;;608.65;;
16147;SDS011;8179;59.364;18.018;2023-07-13T05:13:50;1034.82;;;970.13;;
16147;SDS011;8179;59.364;18.018;2023-07-13T05:16:17;598.25;;;571.50;;
16147;SDS011;8179;59.364;18.018;2023-07-13T05:18:43;515.92;;;495.17;;
16147;SDS011;8179;59.364;18.018;2023-07-13T05:21:11;656.20;;;625.00;;
16147;SDS011;8179;59.364;18.018;2023-07-13T05:23:38;618.72;;;590.45;;
16147;SDS011;8179;59.364;18.018;2023-07-13T05:26:06;692.17;;;658.25;;
16147;SDS011;8179;59.364;18.018;2023-07-13T05:28:33;781.13;;;740.65;;
16147;SDS011;8179;59.364;18.018;2023-07-13T05:31:00;866.08;;;817.42;;
16147;SDS011;8179;59.364;18.018;2023-07-13T05:33:26;845.75;;;799.20;;
16147;SDS011;8179;59.364;18.018;2023-07-13T05:35:53;928.72;;;875.88;;
16147;SDS011;8179;59.364;18.018;2023-07-13T05:38:21;771.28;;;730.63;;
16147;SDS011;8179;59.364;18.018;2023-07-13T05:40:49;571.92;;;547.22;;
16147;SDS011;8179;59.364;18.018;2023-07-13T05:43:16;652.35;;;622.05;;
16147;SDS011;8179;59.364;18.018;2023-07-13T05:45:43;692.03;;;658.67;;
16147;SDS011;8179;59.364;18.018;2023-07-13T05:48:09;628.70;;;599.55;;
16147;SDS011;8179;59.364;18.018;2023-07-13T05:50:36;684.33;;;650.92;;
16147;SDS011;8179;59.364;18.018;2023-07-13T05:53:03;313.73;;;303.20;;
16147;SDS011;8179;59.364;18.018;2023-07-13T05:55:31;264.17;;;255.65;;
16147;SDS011;8179;59.364;18.018;2023-07-13T05:57:58;281.27;;;272.25;;
16147;SDS011;8179;59.364;18.018;2023-07-13T06:00:25;357.40;;;345.25;;
16147;SDS011;8179;59.364;18.018;2023-07-13T06:02:51;444.50;;;427.85;;
16147;SDS011;8179;59.364;18.018;2023-07-13T06:05:18;323.65;;;313.17;;
16147;SDS011;8179;59.364;18.018;2023-07-13T06:07:45;565.67;;;541.17;;
16147;SDS011;8179;59.364;18.018;2023-07-13T06:10:12;537.47;;;514.92;;
16147;SDS011;8179;59.364;18.018;2023-07-13T06:12:40;525.42;;;504.98;;
16147;SDS011;8179;59.364;18.018;2023-07-13T06:15:07;486.73;;;467.92;;
16147;SDS011;8179;59.364;18.018;2023-07-13T06:17:34;393.25;;;378.15;;
16147;SDS011;8179;59.364;18.018;2023-07-13T06:20:00;573.03;;;548.58;;
16147;SDS011;8179;59.364;18.018;2023-07-13T06:22:27;536.65;;;513.10;;
16147;SDS011;8179;59.364;18.018;2023-07-13T06:24:53;504.40;;;481.98;;
16147;SDS011;8179;59.364;18.018;2023-07-13T06:27:20;456.38;;;439.02;;
16147;SDS011;8179;59.364;18.018;2023-07-13T06:29:48;501.95;;;481.75;;
16147;SDS011;8179;59.364;18.018;2023-07-13T06:32:15;440.15;;;422.23;;
16147;SDS011;8179;59.364;18.018;2023-07-13T06:34:41;440.23;;;423.20;;
16147;SDS011;8179;59.364;18.018;2023-07-13T06:37:08;394.85;;;379.38;;
16147;SDS011;8179;59.364;18.018;2023-07-13T06:39:35;358.77;;;345.48;;
16147;SDS011;8179;59.364;18.018;2023-07-13T06:42:01;449.52;;;431.33;;
16147;SDS011;8179;59.364;18.018;2023-07-13T06:44:28;574.45;;;548.38;;
16147;SDS011;8179;59.364;18.018;2023-07-13T06:46:56;524.58;;;502.42;;
16147;SDS011;8179;59.364;18.018;2023-07-13T06:49:23;516.78;;;494.92;;
16147;SDS011;8179;59.364;18.018;2023-07-13T06:51:49;862.72;;;811.10;;
16147;SDS011;8179;59.364;18.018;2023-07-13T06:54:16;642.28;;;610.72;;
16147;SDS011;8179;59.364;18.018;2023-07-13T06:56:43;781.53;;;739.97;;
16147;SDS011;8179;59.364;18.018;2023-07-13T06:59:09;702.40;;;666.15;;
16147;SDS011;8179;59.364;18.018;2023-07-13T07:01:36;785.05;;;743.17;;
16147;SDS011;8179;59.364;18.018;2023-07-13T07:04:04;639.63;;;608.92;;
16147;SDS011;8179;59.364;18.018;2023-07-13T07:06:31;596.45;;;568.88;;
16147;SDS011;8179;59.364;18.018;2023-07-13T07:08:57;515.85;;;493.60;;
16147;SDS011;8179;59.364;18.018;2023-07-13T07:11:24;488.48;;;465.85;;
16147;SDS011;8179;59.364;18.018;2023-07-13T07:13:52;594.40;;;565.55;;
16147;SDS011;8179;59.364;18.018;2023-07-13T07:16:19;674.42;;;639.78;;
16147;SDS011;8179;59.364;18.018;2023-07-13T07:18:46;521.97;;;499.98;;
16147;SDS011;8179;59.364;18.018;2023-07-13T07:21:14;740.45;;;701.92;;
16147;SDS011;8179;59.364;18.018;2023-07-13T07:23:41;841.85;;;794.25;;
16147;SDS011;8179;59.364;18.018;2023-07-13T07:26:08;778.70;;;736.53;;
16147;SDS011;8179;59.364;18.018;2023-07-13T07:28:35;855.58;;;808.35;;
16147;SDS011;8179;59.364;18.018;2023-07-13T07:31:02;648.88;;;617.65;;
16147;SDS011;8179;59.364;18.018;2023-07-13T07:33:28;652.50;;;621.03;;
16147;SDS011;8179;59.364;18.018;2023-07-13T07:35:55;642.05;;;610.05;;
16147;SDS011;8179;59.364;18.018;2023-07-13T07:38:23;565.90;;;540.80;;
16147;SDS011;8179;59.364;18.018;2023-07-13T07:40:49;730.78;;;693.90;;
16147;SDS011;8179;59.364;18.018;2023-07-13T07:43:16;606.10;;;578.40;;
16147;SDS011;8179;59.364;18.018;2023-07-13T07:45:43;646.40;;;615.40;;
16147;SDS011;8179;59.364;18.018;2023-07-13T07:48:10;557.00;;;531.85;;
16147;SDS011;8179;59.364;18.018;2023-07-13T07:50:37;669.17;;;636.17;;
16147;SDS011;8179;59.364;18.018;2023-07-13T07:53:04;471.98;;;453.02;;
16147;SDS011;8179;59.364;18.018;2023-07-13T07:55:34;447.83;;;430.17;;
16147;SDS011;8179;59.364;18.018;2023-07-13T07:58:01;447.92;;;430.98;;
16147;SDS011;8179;59.364;18.018;2023-07-13T08:00:27;474.67;;;455.23;;
16147;SDS011;8179;59.364;18.018;2023-07-13T08:02:56;432.15;;;415.50;;
16147;SDS011;8179;59.364;18.018;2023-07-13T08:05:23;421.92;;;404.38;;
16147;SDS011;8179;59.364;18.018;2023-07-13T08:07:49;528.50;;;505.73;;
16147;SDS011;8179;59.364;18.018;2023-07-13T08:10:16;448.05;;;429.92;;
16147;SDS011;8179;59.364;18.018;2023-07-13T08:12:44;363.10;;;351.30;;
16147;SDS011;8179;59.364;18.018;2023-07-13T08:15:12;327.35;;;315.63;;
16147;SDS011;8179;59.364;18.018;2023-07-13T08:17:39;468.95;;;449.88;;
16147;SDS011;8179;59.364;18.018;2023-07-13T08:20:06;491.35;;;471.75;;
16147;SDS011;8179;59.364;18.018;2023-07-13T08:22:33;325.90;;;314.90;;
16147;SDS011;8179;59.364;18.018;2023-07-13T08:25:00;373.00;;;358.85;;
16147;SDS011;8179;59.364;18.018;2023-07-13T08:27:27;376.08;;;362.85;;
16147;SDS011;8179;59.364;18.018;2023-07-13T08:29:56;346.42;;;334.60;;
16147;SDS011;8179;59.364;18.018;2023-07-13T08:32:23;448.13;;;430.42;;
16147;SDS011;8179;59.364;18.018;2023-07-13T08:34:49;541.63;;;519.03;;
16147;SDS011;8179;59.364;18.018;2023-07-13T08:37:17;561.85;;;537.22;;
16147;SDS011;8179;59.364;18.018;2023-07-13T08:39:43;457.02;;;438.83;;
16147;SDS011;8179;59.364;18.018;2023-07-13T08:42:12;400.73;;;385.33;;
16147;SDS011;8179;59.364;18.018;2023-07-13T08:44:43;371.38;;;358.38;;
16147;SDS011;8179;59.364;18.018;2023-07-13T08:47:14;375.58;;;362.48;;
16147;SDS011;8179;59.364;18.018;2023-07-13T08:49:41;286.88;;;277.63;;
16147;SDS011;8179;59.364;18.018;2023-07-13T08:52:11;385.67;;;372.63;;
16147;SDS011;8179;59.364;18.018;2023-07-13T08:54:41;376.88;;;363.58;;
16147;SDS011;8179;59.364;18.018;2023-07-13T08:57:11;364.40;;;352.13;;
16147;SDS011;8179;59.364;18.018;2023-07-13T08:59:39;350.13;;;337.73;;
16147;SDS011;8179;59.364;18.018;2023-07-13T09:04:49;317.70;;;306.65;;
16147;SDS011;8179;59.364;18.018;2023-07-13T09:07:19;284.02;;;275.27;;
16147;SDS011;8179;59.364;18.018;2023-07-13T09:10:02;392.58;;;378.83;;
16147;SDS011;8179;59.364;18.018;2023-07-13T09:12:34;292.13;;;282.65;;
16147;SDS011;8179;59.364;18.018;2023-07-13T09:15:02;349.75;;;338.48;;
16147;SDS011;8179;59.364;18.018;2023-07-13T09:17:31;413.50;;;398.90;;
16147;SDS011;8179;59.364;18.018;2023-07-13T09:20:00;431.25;;;416.25;;
16147;SDS011;8179;59.364;18.018;2023-07-13T09:22:29;335.45;;;324.60;;
16147;SDS011;8179;59.364;18.018;2023-07-13T09:25:02;368.95;;;356.60;;
16147;SDS011;8179;59.364;18.018;2023-07-13T09:27:31;427.55;;;411.83;;
16147;SDS011;8179;59.364;18.018;2023-07-13T09:30:02;488.15;;;469.10;;
16147;SDS011;8179;59.364;18.018;2023-07-13T09:32:30;373.33;;;360.85;;
16147;SDS011;8179;59.364;18.018;2023-07-13T09:34:57;414.05;;;399.20;;
16147;SDS011;8179;59.364;18.018;2023-07-13T09:37:29;457.50;;;441.13;;
16147;SDS011;8179;59.364;18.018;2023-07-13T09:39:57;375.50;;;362.80;;
16147;SDS011;8179;59.364;18.018;2023-07-13T09:42:24;319.90;;;309.73;;
16147;SDS011;8179;59.364;18.018;2023-07-13T09:44:53;345.73;;;334.40;;
16147;SDS011;8179;59.364;18.018;2023-07-13T09:47:20;358.52;;;346.70;;
16147;SDS011;8179;59.364;18.018;2023-07-13T09:49:48;498.63;;;478.73;;
16147;SDS011;8179;59.364;18.018;2023-07-13T09:52:20;372.90;;;360.42;;
16147;SDS011;8179;59.364;18.018;2023-07-13T09:54:48;418.65;;;403.75;;
16147;SDS011;8179;59.364;18.018;2023-07-13T09:57:16;414.20;;;399.17;;
16147;SDS011;8179;59.364;18.018;2023-07-13T09:59:44;453.95;;;437.92;;
16147;SDS011;8179;59.364;18.018;2023-07-13T10:02:24;422.55;;;407.35;;
16147;SDS011;8179;59.364;18.018;2023-07-13T10:04:55;456.10;;;439.42;;
16147;SDS011;8179;59.364;18.018;2023-07-13T10:07:22;454.95;;;438.60;;
16147;SDS011;8179;59.364;18.018;2023-07-13T10:09:52;555.00;;;533.65;;
16147;SDS011;8179;59.364;18.018;2023-07-13T10:12:20;578.35;;;554.75;;
16147;SDS011;8179;59.364;18.018;2023-07-13T10:14:48;537.85;;;516.35;;
16147;SDS011;8179;59.364;18.018;2023-07-13T10:17:17;651.03;;;620.38;;
16147;SDS011;8179;59.364;18.018;2023-07-13T10:19:45;633.83;;;606.25;;
16147;SDS011;8179;59.364;18.018;2023-07-13T10:22:14;695.67;;;663.30;;
16147;SDS011;8179;59.364;18.018;2023-07-13T10:24:42;759.03;;;721.83;;
16147;SDS011;8179;59.364;18.018;2023-07-13T10:27:12;658.70;;;628.72;;
16147;SDS011;8179;59.364;18.018;2023-07-13T10:29:42;593.90;;;569.38;;
16147;SDS011;8179;59.364;18.018;2023-07-13T10:32:10;611.00;;;584.85;;
16147;SDS011;8179;59.364;18.018;2023-07-13T10:34:38;514.90;;;495.45;;
16147;SDS011;8179;59.364;18.018;2023-07-13T10:37:05;643.95;;;615.30;;
16147;SDS011;8179;59.364;18.018;2023-07-13T10:39:31;653.10;;;624.50;;
16147;SDS011;8179;59.364;18.018;2023-07-13T10:42:01;686.10;;;655.17;;
16147;SDS011;8179;59.364;18.018;2023-07-13T10:44:31;665.08;;;635.28;;
16147;SDS011;8179;59.364;18.018;2023-07-13T10:46:58;656.33;;;626.53;;
16147;SDS011;8179;59.364;18.018;2023-07-13T10:49:26;826.05;;;782.42;;
16147;SDS011;8179;59.364;18.018;2023-07-13T10:51:53;730.38;;;695.25;;
16147;SDS011;8179;59.364;18.018;2023-07-13T10:54:20;663.28;;;633.63;;
16147;SDS011;8179;59.364;18.018;2023-07-13T10:56:50;678.22;;;646.97;;
16147;SDS011;8179;59.364;18.018;2023-07-13T10:59:18;728.88;;;693.85;;
16147;SDS011;8179;59.364;18.018;2023-07-13T11:01:54;661.10;;;631.13;;
16147;SDS011;8179;59.364;18.018;2023-07-13T11:04:22;688.25;;;656.40;;
16147;SDS011;8179;59.364;18.018;2023-07-13T11:06:50;811.28;;;769.15;;
16147;SDS011;8179;59.364;18.018;2023-07-13T11:09:18;716.42;;;681.60;;
16147;SDS011;8179;59.364;18.018;2023-07-13T11:11:45;648.70;;;619.78;;
16147;SDS011;8179;59.364;18.018;2023-07-13T11:14:29;719.10;;;685.03;;
16147;SDS011;8179;59.364;18.018;2023-07-13T11:16:57;766.92;;;728.33;;
16147;SDS011;8179;59.364;18.018;2023-07-13T11:22:16;719.47;;;685.30;;
16147;SDS011;8179;59.364;18.018;2023-07-13T11:24:50;658.25;;;629.08;;
16147;SDS011;8179;59.364;18.018;2023-07-13T11:27:22;843.67;;;797.13;;
16147;SDS011;8179;59.364;18.018;2023-07-13T11:29:48;674.50;;;643.88;;
16147;SDS011;8179;59.364;18.018;2023-07-13T11:32:30;676.17;;;645.45;;
16147;SDS011;8179;59.364;18.018;2023-07-13T11:34:56;710.63;;;676.42;;
16147;SDS011;8179;59.364;18.018;2023-07-13T11:37:24;854.30;;;808.63;;
16147;SDS011;8179;59.364;18.018;2023-07-13T11:39:51;716.83;;;682.42;;
16147;SDS011;8179;59.364;18.018;2023-07-13T11:42:18;819.55;;;772.42;;
16147;SDS011;8179;59.364;18.018;2023-07-13T11:44:46;698.45;;;664.72;;
16147;SDS011;8179;59.364;18.018;2023-07-13T11:47:14;846.22;;;801.38;;
16147;SDS011;8179;59.364;18.018;2023-07-13T11:49:45;835.90;;;791.63;;
16147;SDS011;8179;59.364;18.018;2023-07-13T11:52:12;723.20;;;688.45;;
16147;SDS011;8179;59.364;18.018;2023-07-13T11:54:43;709.75;;;676.05;;
16147;SDS011;8179;59.364;18.018;2023-07-13T11:57:21;686.50;;;654.63;;
16147;SDS011;8179;59.364;18.018;2023-07-13T11:59:50;723.63;;;688.97;;
16147;SDS011;8179;59.364;18.018;2023-07-13T12:02:17;731.35;;;695.33;;
16147;SDS011;8179;59.364;18.018;2023-07-13T12:04:50;760.40;;;722.15;;
16147;SDS011;8179;59.364;18.018;2023-07-13T12:07:18;672.78;;;641.25;;
16147;SDS011;8179;59.364;18.018;2023-07-13T12:09:45;759.40;;;721.83;;
16147;SDS011;8179;59.364;18.018;2023-07-13T12:12:12;805.33;;;763.60;;
16147;SDS011;8179;59.364;18.018;2023-07-13T12:14:39;773.15;;;734.10;;
16147;SDS011;8179;59.364;18.018;2023-07-13T12:17:16;748.33;;;710.80;;
16147;SDS011;8179;59.364;18.018;2023-07-13T12:19:42;734.00;;;698.78;;
16147;SDS011;8179;59.364;18.018;2023-07-13T12:22:12;709.40;;;675.60;;
16147;SDS011;8179;59.364;18.018;2023-07-13T12:24:39;759.13;;;721.50;;
16147;SDS011;8179;59.364;18.018;2023-07-13T12:27:13;705.00;;;671.22;;
16147;SDS011;8179;59.364;18.018;2023-07-13T12:29:48;772.88;;;734.40;;
16147;SDS011;8179;59.364;18.018;2023-07-13T12:32:15;768.45;;;730.35;;
16147;SDS011;8179;59.364;18.018;2023-07-13T12:34:50;747.65;;;710.72;;
16147;SDS011;8179;59.364;18.018;2023-07-13T12:37:19;743.25;;;706.55;;
16147;SDS011;8179;59.364;18.018;2023-07-13T12:39:46;792.63;;;750.90;;
16147;SDS011;8179;59.364;18.018;2023-07-13T12:42:18;724.88;;;689.60;;
16147;SDS011;8179;59.364;18.018;2023-07-13T12:44:48;762.50;;;724.28;;
16147;SDS011;8179;59.364;18.018;2023-07-13T12:47:15;799.47;;;758.35;;
16147;SDS011;8179;59.364;18.018;2023-07-13T12:49:43;811.53;;;770.25;;
16147;SDS011;8179;59.364;18.018;2023-07-13T12:52:14;659.70;;;629.75;;
16147;SDS011;8179;59.364;18.018;2023-07-13T12:54:51;811.50;;;769.38;;
16147;SDS011;8179;59.364;18.018;2023-07-13T12:57:18;741.25;;;704.50;;
16147;SDS011;8179;59.364;18.018;2023-07-13T12:59:45;794.65;;;753.65;;
16147;SDS011;8179;59.364;18.018;2023-07-13T13:02:21;809.00;;;767.35;;
16147;SDS011;8179;59.364;18.018;2023-07-13T13:04:49;833.78;;;789.60;;
16147;SDS011;8179;59.364;18.018;2023-07-13T13:07:15;779.17;;;739.70;;
16147;SDS011;8179;59.364;18.018;2023-07-13T13:09:44;824.45;;;781.55;;
16147;SDS011;8179;59.364;18.018;2023-07-13T13:12:12;785.15;;;745.03;;
16147;SDS011;8179;59.364;18.018;2023-07-13T13:14:40;702.17;;;669.40;;
16147;SDS011;8179;59.364;18.018;2023-07-13T13:17:08;752.25;;;714.28;;
16147;SDS011;8179;59.364;18.018;2023-07-13T13:19:43;739.97;;;703.67;;
16147;SDS011;8179;59.364;18.018;2023-07-13T13:22:10;790.85;;;750.38;;
16147;SDS011;8179;59.364;18.018;2023-07-13T13:24:36;832.10;;;788.42;;
16147;SDS011;8179;59.364;18.018;2023-07-13T13:27:05;809.60;;;767.55;;
16147;SDS011;8179;59.364;18.018;2023-07-13T13:29:32;772.03;;;733.80;;
16147;SDS011;8179;59.364;18.018;2023-07-13T13:31:59;845.58;;;800.67;;
16147;SDS011;8179;59.364;18.018;2023-07-13T13:34:25;812.17;;;769.78;;
16147;SDS011;8179;59.364;18.018;2023-07-13T13:36:52;700.75;;;666.80;;
16147;SDS011;8179;59.364;18.018;2023-07-13T13:39:20;838.97;;;795.40;;
16147;SDS011;8179;59.364;18.018;2023-07-13T13:41:48;865.80;;;819.45;;
16147;SDS011;8179;59.364;18.018;2023-07-13T13:44:16;798.85;;;758.10;;
16147;SDS011;8179;59.364;18.018;2023-07-13T13:46:44;745.17;;;708.75;;
16147;SDS011;8179;59.364;18.018;2023-07-13T13:49:12;755.53;;;718.88;;
16147;SDS011;8179;59.364;18.018;2023-07-13T13:51:40;814.60;;;771.45;;
16147;SDS011;8179;59.364;18.018;2023-07-13T13:54:09;818.22;;;775.17;;
16147;SDS011;8179;59.364;18.018;2023-07-13T13:56:36;783.05;;;742.88;;
16147;SDS011;8179;59.364;18.018;2023-07-13T13:59:03;845.10;;;798.70;;
16147;SDS011;8179;59.364;18.018;2023-07-13T14:01:32;881.30;;;833.05;;
16147;SDS011;8179;59.364;18.018;2023-07-13T14:03:58;735.90;;;699.90;;